AUA67U EPWA-LOWW
Flight info
| Callsign | AUA67U |
|---|---|
| Flight time | 0h 54m |
| Altitude | 34000 |
| Route | EVINA N744 TUSIN DCT MIKOV MIKOV8W |
| Aircraft | A320/M-SDE3FGHIRWY/LB1 |
Departure
| Time | 2026-05-04 17:03 |
|---|---|
| Airport | Warsaw Chopin Airport (EPWA) |
Arrival
| Time | 2026-05-04 17:58 |
|---|---|
| Airport | Vienna International Airport (LOWW) |
| Time | Latitude | Longitude | Altitude | Speed | Heading |
|---|---|---|---|---|---|
| 2026-05-04 16:44 | 52.16848 | 20.97277 | 339 ft | 0 kts | 76° |
| 2026-05-04 16:56 | 52.16839 | 20.97218 | 334 ft | 4 kts | 77° |
| 2026-05-04 16:56 | 52.16836 | 20.97127 | 335 ft | 2 kts | 133° |
| 2026-05-04 16:57 | 52.16844 | 20.97114 | 336 ft | 2 kts | 148° |
| 2026-05-04 16:57 | 52.16854 | 20.97105 | 336 ft | 0 kts | 151° |
| 2026-05-04 16:59 | 52.16843 | 20.97115 | 335 ft | 6 kts | 151° |
| 2026-05-04 17:00 | 52.16692 | 20.97246 | 336 ft | 4 kts | 152° |
| 2026-05-04 17:00 | 52.16559 | 20.97427 | 336 ft | 9 kts | 115° |
| 2026-05-04 17:01 | 52.16504 | 20.97618 | 339 ft | 13 kts | 114° |
| 2026-05-04 17:01 | 52.16406 | 20.97798 | 337 ft | 10 kts | 205° |
| 2026-05-04 17:02 | 52.16313 | 20.97649 | 338 ft | 4 kts | 295° |
| 2026-05-04 17:02 | 52.16442 | 20.97190 | 334 ft | 82 kts | 295° |
| 2026-05-04 17:03 | 52.16768 | 20.96026 | 336 ft | 142 kts | 294° |
| 2026-05-04 17:03 | 52.17218 | 20.94415 | 683 ft | 159 kts | 292° |
| 2026-05-04 17:03 | 52.18127 | 20.91111 | 1862 ft | 168 kts | 285° |
| 2026-05-04 17:04 | 52.17856 | 20.86992 | 2501 ft | 205 kts | 255° |
| 2026-05-04 17:04 | 52.16566 | 20.82463 | 3352 ft | 246 kts | 217° |
| 2026-05-04 17:05 | 52.13254 | 20.80585 | 5068 ft | 257 kts | 200° |
| 2026-05-04 17:05 | 52.09859 | 20.78423 | 6749 ft | 267 kts | 205° |
| 2026-05-04 17:06 | 52.06361 | 20.76130 | 8453 ft | 274 kts | 204° |
| 2026-05-04 17:06 | 52.04566 | 20.75002 | 9310 ft | 278 kts | 203° |
| 2026-05-04 17:07 | 52.00827 | 20.72714 | 10436 ft | 306 kts | 202° |
| 2026-05-04 17:07 | 51.99475 | 20.71895 | 10652 ft | 319 kts | 202° |
| 2026-05-04 17:07 | 51.96639 | 20.70191 | 11513 ft | 329 kts | 202° |
| 2026-05-04 17:07 | 51.94479 | 20.68899 | 12256 ft | 333 kts | 202° |
| 2026-05-04 17:08 | 51.92291 | 20.67593 | 12999 ft | 337 kts | 202° |
| 2026-05-04 17:08 | 51.87840 | 20.64943 | 14393 ft | 345 kts | 202° |
| 2026-05-04 17:08 | 51.85578 | 20.63601 | 15046 ft | 348 kts | 202° |
| 2026-05-04 17:09 | 51.83290 | 20.62245 | 15695 ft | 352 kts | 202° |
| 2026-05-04 17:09 | 51.81011 | 20.60891 | 16331 ft | 355 kts | 202° |
| 2026-05-04 17:09 | 51.78680 | 20.59501 | 16980 ft | 358 kts | 202° |
| 2026-05-04 17:10 | 51.73956 | 20.56685 | 18241 ft | 365 kts | 202° |
| 2026-05-04 17:10 | 51.66698 | 20.52381 | 19875 ft | 376 kts | 202° |
| 2026-05-04 17:11 | 51.64228 | 20.50924 | 20428 ft | 379 kts | 202° |
| 2026-05-04 17:11 | 51.61740 | 20.49459 | 20967 ft | 383 kts | 202° |
| 2026-05-04 17:11 | 51.56692 | 20.46484 | 22050 ft | 390 kts | 202° |
| 2026-05-04 17:12 | 51.54131 | 20.44978 | 22584 ft | 393 kts | 202° |
| 2026-05-04 17:12 | 51.48940 | 20.41941 | 23605 ft | 400 kts | 202° |
| 2026-05-04 17:13 | 51.40989 | 20.37290 | 24849 ft | 409 kts | 203° |
| 2026-05-04 17:14 | 51.33792 | 20.29973 | 26018 ft | 414 kts | 219° |
| 2026-05-04 17:14 | 51.31489 | 20.27179 | 26393 ft | 417 kts | 219° |
| 2026-05-04 17:14 | 51.26834 | 20.21569 | 27133 ft | 422 kts | 219° |
| 2026-05-04 17:15 | 51.24477 | 20.18740 | 27494 ft | 425 kts | 219° |
| 2026-05-04 17:15 | 51.19758 | 20.13076 | 28195 ft | 430 kts | 219° |
| 2026-05-04 17:16 | 51.14946 | 20.07327 | 28872 ft | 435 kts | 219° |
| 2026-05-04 17:16 | 51.07620 | 19.98586 | 29839 ft | 442 kts | 219° |
| 2026-05-04 17:17 | 51.05145 | 19.95650 | 30119 ft | 445 kts | 218° |
| 2026-05-04 17:17 | 50.97652 | 19.86797 | 30896 ft | 450 kts | 218° |
| 2026-05-04 17:18 | 50.95135 | 19.83823 | 31140 ft | 452 kts | 218° |
| 2026-05-04 17:18 | 50.90077 | 19.77858 | 31716 ft | 452 kts | 218° |
| 2026-05-04 17:19 | 50.85037 | 19.71930 | 32405 ft | 450 kts | 218° |
| 2026-05-04 17:19 | 50.80018 | 19.66042 | 33079 ft | 448 kts | 218° |
| 2026-05-04 17:20 | 50.75016 | 19.60194 | 33760 ft | 447 kts | 218° |
| 2026-05-04 17:20 | 50.70054 | 19.54410 | 33968 ft | 437 kts | 218° |
| 2026-05-04 17:20 | 50.67644 | 19.51609 | 33970 ft | 434 kts | 218° |
| 2026-05-04 17:21 | 50.57957 | 19.40375 | 33973 ft | 432 kts | 218° |
| 2026-05-04 17:22 | 50.53110 | 19.34770 | 33973 ft | 432 kts | 218° |
| 2026-05-04 17:23 | 50.43424 | 19.23594 | 33970 ft | 432 kts | 218° |
| 2026-05-04 17:24 | 50.36146 | 19.15267 | 33964 ft | 431 kts | 218° |
| 2026-05-04 17:25 | 50.26474 | 19.04244 | 33960 ft | 431 kts | 218° |
| 2026-05-04 17:26 | 50.16766 | 18.93215 | 33957 ft | 431 kts | 218° |
| 2026-05-04 17:27 | 50.04606 | 18.79508 | 33961 ft | 432 kts | 218° |
| 2026-05-04 17:28 | 49.95691 | 18.69499 | 33966 ft | 432 kts | 218° |
| 2026-05-04 17:29 | 49.81299 | 18.50713 | 33992 ft | 425 kts | 233° |
| 2026-05-04 17:31 | 49.72620 | 18.34252 | 33988 ft | 420 kts | 233° |
| 2026-05-04 17:32 | 49.63386 | 18.16882 | 33969 ft | 419 kts | 233° |
| 2026-05-04 17:33 | 49.55987 | 18.03020 | 33964 ft | 418 kts | 232° |
| 2026-05-04 17:34 | 49.50430 | 17.92670 | 33135 ft | 415 kts | 232° |
| 2026-05-04 17:34 | 49.48602 | 17.89270 | 32630 ft | 411 kts | 232° |
| 2026-05-04 17:35 | 49.43205 | 17.79238 | 31137 ft | 401 kts | 232° |
| 2026-05-04 17:35 | 49.39666 | 17.72697 | 30162 ft | 396 kts | 232° |
| 2026-05-04 17:35 | 49.37904 | 17.69455 | 29642 ft | 393 kts | 232° |
| 2026-05-04 17:36 | 49.36163 | 17.66250 | 29175 ft | 389 kts | 232° |
| 2026-05-04 17:36 | 49.34436 | 17.63074 | 28721 ft | 385 kts | 232° |
| 2026-05-04 17:36 | 49.32731 | 17.59942 | 28280 ft | 381 kts | 232° |
| 2026-05-04 17:36 | 49.31039 | 17.56837 | 27849 ft | 377 kts | 232° |
| 2026-05-04 17:37 | 49.29364 | 17.53765 | 27410 ft | 374 kts | 232° |
| 2026-05-04 17:37 | 49.27722 | 17.50759 | 27000 ft | 371 kts | 232° |
| 2026-05-04 17:37 | 49.26071 | 17.47747 | 26586 ft | 367 kts | 231° |
| 2026-05-04 17:37 | 49.24444 | 17.44778 | 26171 ft | 364 kts | 232° |
| 2026-05-04 17:38 | 49.22817 | 17.41808 | 25743 ft | 361 kts | 231° |
| 2026-05-04 17:38 | 49.21210 | 17.38875 | 25329 ft | 358 kts | 231° |
| 2026-05-04 17:38 | 49.19617 | 17.35969 | 24890 ft | 356 kts | 231° |
| 2026-05-04 17:38 | 49.18026 | 17.33071 | 24453 ft | 354 kts | 231° |
| 2026-05-04 17:39 | 49.14872 | 17.27338 | 23565 ft | 351 kts | 231° |
| 2026-05-04 17:39 | 49.13302 | 17.24491 | 23069 ft | 349 kts | 231° |
| 2026-05-04 17:39 | 49.11739 | 17.21665 | 22621 ft | 346 kts | 231° |
| 2026-05-04 17:40 | 49.10191 | 17.18865 | 22180 ft | 344 kts | 231° |
| 2026-05-04 17:40 | 49.08656 | 17.16085 | 21744 ft | 341 kts | 231° |
| 2026-05-04 17:40 | 49.07132 | 17.13324 | 21313 ft | 339 kts | 231° |
| 2026-05-04 17:40 | 49.05612 | 17.10577 | 20886 ft | 337 kts | 230° |
| 2026-05-04 17:41 | 49.04100 | 17.07853 | 20464 ft | 335 kts | 230° |
| 2026-05-04 17:41 | 49.02615 | 17.05184 | 20045 ft | 334 kts | 230° |
| 2026-05-04 17:41 | 49.01116 | 17.02493 | 19628 ft | 332 kts | 230° |
| 2026-05-04 17:41 | 48.99625 | 16.99817 | 19212 ft | 331 kts | 230° |
| 2026-05-04 17:42 | 48.98139 | 16.97148 | 18801 ft | 330 kts | 230° |
| 2026-05-04 17:42 | 48.96659 | 16.94494 | 18395 ft | 329 kts | 230° |
| 2026-05-04 17:42 | 48.95182 | 16.91848 | 17941 ft | 327 kts | 230° |
| 2026-05-04 17:42 | 48.93713 | 16.89216 | 17542 ft | 325 kts | 230° |
| 2026-05-04 17:43 | 48.92255 | 16.86609 | 17140 ft | 322 kts | 229° |
| 2026-05-04 17:43 | 48.90803 | 16.84019 | 16746 ft | 320 kts | 229° |
| 2026-05-04 17:43 | 48.89364 | 16.81455 | 16359 ft | 318 kts | 229° |
| 2026-05-04 17:43 | 48.87932 | 16.78908 | 15981 ft | 316 kts | 229° |
| 2026-05-04 17:44 | 48.86508 | 16.76381 | 15594 ft | 314 kts | 229° |
| 2026-05-04 17:44 | 48.85090 | 16.73863 | 15210 ft | 313 kts | 229° |
| 2026-05-04 17:44 | 48.83683 | 16.71362 | 14835 ft | 311 kts | 229° |
| 2026-05-04 17:44 | 48.82282 | 16.68870 | 14460 ft | 309 kts | 229° |
| 2026-05-04 17:45 | 48.80697 | 16.66764 | 14357 ft | 298 kts | 211° |
| 2026-05-04 17:45 | 48.78824 | 16.65423 | 13978 ft | 299 kts | 204° |
| 2026-05-04 17:45 | 48.76896 | 16.64213 | 13562 ft | 300 kts | 203° |
| 2026-05-04 17:45 | 48.74965 | 16.63035 | 13148 ft | 297 kts | 202° |
| 2026-05-04 17:46 | 48.73056 | 16.61884 | 12446 ft | 295 kts | 202° |
| 2026-05-04 17:46 | 48.71179 | 16.60749 | 11927 ft | 287 kts | 202° |
| 2026-05-04 17:46 | 48.69334 | 16.59634 | 11313 ft | 284 kts | 203° |
| 2026-05-04 17:46 | 48.67508 | 16.58531 | 10699 ft | 281 kts | 203° |
| 2026-05-04 17:47 | 48.65696 | 16.57432 | 10070 ft | 280 kts | 203° |
| 2026-05-04 17:47 | 48.63899 | 16.56337 | 9411 ft | 277 kts | 203° |
| 2026-05-04 17:47 | 48.62119 | 16.55247 | 8745 ft | 275 kts | 203° |
| 2026-05-04 17:47 | 48.60357 | 16.54167 | 8111 ft | 272 kts | 202° |
| 2026-05-04 17:48 | 48.58667 | 16.53135 | 7891 ft | 253 kts | 202° |
| 2026-05-04 17:48 | 48.57061 | 16.52156 | 7410 ft | 247 kts | 202° |
| 2026-05-04 17:48 | 48.55480 | 16.51190 | 6862 ft | 244 kts | 202° |
| 2026-05-04 17:48 | 48.53913 | 16.50237 | 6311 ft | 242 kts | 202° |
| 2026-05-04 17:49 | 48.52360 | 16.49295 | 5762 ft | 239 kts | 201° |
| 2026-05-04 17:49 | 48.50832 | 16.48368 | 5228 ft | 235 kts | 201° |
| 2026-05-04 17:49 | 48.49317 | 16.47446 | 5023 ft | 234 kts | 201° |
| 2026-05-04 17:49 | 48.47830 | 16.46543 | 4997 ft | 233 kts | 201° |
| 2026-05-04 17:50 | 48.46324 | 16.45627 | 4996 ft | 232 kts | 201° |
| 2026-05-04 17:50 | 48.44846 | 16.44829 | 5000 ft | 220 kts | 192° |
| 2026-05-04 17:50 | 48.43333 | 16.44666 | 5002 ft | 218 kts | 175° |
| 2026-05-04 17:50 | 48.41834 | 16.45102 | 4997 ft | 220 kts | 167° |
| 2026-05-04 17:51 | 48.40363 | 16.45720 | 5011 ft | 221 kts | 166° |
| 2026-05-04 17:51 | 48.38888 | 16.46358 | 5000 ft | 219 kts | 166° |
| 2026-05-04 17:51 | 48.37469 | 16.46969 | 5000 ft | 207 kts | 166° |
| 2026-05-04 17:51 | 48.36091 | 16.47558 | 5009 ft | 205 kts | 166° |
| 2026-05-04 17:52 | 48.34719 | 16.48144 | 4992 ft | 205 kts | 167° |
| 2026-05-04 17:52 | 48.33351 | 16.48728 | 4830 ft | 204 kts | 166° |
| 2026-05-04 17:52 | 48.31998 | 16.49306 | 4582 ft | 201 kts | 166° |
| 2026-05-04 17:52 | 48.30665 | 16.49874 | 4320 ft | 198 kts | 166° |
| 2026-05-04 17:53 | 48.29351 | 16.50435 | 4064 ft | 192 kts | 167° |
| 2026-05-04 17:53 | 48.28092 | 16.50972 | 3820 ft | 184 kts | 167° |
| 2026-05-04 17:53 | 48.26869 | 16.51493 | 3592 ft | 182 kts | 166° |
| 2026-05-04 17:53 | 48.25657 | 16.52009 | 3386 ft | 179 kts | 166° |
| 2026-05-04 17:54 | 48.24475 | 16.52512 | 3130 ft | 174 kts | 166° |
| 2026-05-04 17:54 | 48.23323 | 16.53002 | 2896 ft | 170 kts | 166° |
| 2026-05-04 17:54 | 48.22203 | 16.53477 | 2676 ft | 167 kts | 166° |
| 2026-05-04 17:54 | 48.21111 | 16.53942 | 2464 ft | 157 kts | 165° |
| 2026-05-04 17:55 | 48.20120 | 16.54363 | 2275 ft | 140 kts | 165° |
| 2026-05-04 17:55 | 48.19204 | 16.54752 | 2092 ft | 134 kts | 166° |
| 2026-05-04 17:55 | 48.18318 | 16.55128 | 1919 ft | 131 kts | 165° |
| 2026-05-04 17:55 | 48.17442 | 16.55500 | 1747 ft | 130 kts | 165° |
| 2026-05-04 17:56 | 48.16567 | 16.55871 | 1575 ft | 132 kts | 165° |
| 2026-05-04 17:56 | 48.15682 | 16.56246 | 1404 ft | 131 kts | 165° |
| 2026-05-04 17:56 | 48.14807 | 16.56622 | 1223 ft | 130 kts | 165° |
| 2026-05-04 17:56 | 48.13938 | 16.56994 | 1027 ft | 130 kts | 164° |
| 2026-05-04 17:57 | 48.13066 | 16.57352 | 873 ft | 130 kts | 162° |
| 2026-05-04 17:57 | 48.12189 | 16.57726 | 684 ft | 130 kts | 161° |
| 2026-05-04 17:57 | 48.11366 | 16.58078 | 622 ft | 111 kts | 161° |
| 2026-05-04 17:57 | 48.10764 | 16.58331 | 617 ft | 66 kts | 164° |
| 2026-05-04 17:58 | 48.10462 | 16.58457 | 620 ft | 36 kts | 168° |
| 2026-05-04 17:58 | 48.10235 | 16.58439 | 610 ft | 28 kts | 194° |
| 2026-05-04 17:58 | 48.10126 | 16.58369 | 613 ft | 6 kts | 227° |
| 2026-05-04 17:58 | 48.10129 | 16.58331 | 610 ft | 3 kts | 311° |
| 2026-05-04 17:59 | 48.10157 | 16.58310 | 614 ft | 10 kts | 342° |
| 2026-05-04 17:59 | 48.10227 | 16.58278 | 618 ft | 10 kts | 342° |
| 2026-05-04 17:59 | 48.10395 | 16.58207 | 617 ft | 18 kts | 343° |
| 2026-05-04 18:00 | 48.10507 | 16.58162 | 614 ft | 16 kts | 344° |
| 2026-05-04 18:00 | 48.10609 | 16.58118 | 621 ft | 15 kts | 344° |
| 2026-05-04 18:00 | 48.10704 | 16.58077 | 617 ft | 14 kts | 344° |
| 2026-05-04 18:00 | 48.10790 | 16.58041 | 616 ft | 12 kts | 344° |
| 2026-05-04 18:01 | 48.10881 | 16.58003 | 614 ft | 17 kts | 345° |
| 2026-05-04 18:01 | 48.11006 | 16.57950 | 614 ft | 20 kts | 345° |
| 2026-05-04 18:01 | 48.11142 | 16.57891 | 610 ft | 21 kts | 344° |
| 2026-05-04 18:02 | 48.11418 | 16.57775 | 620 ft | 21 kts | 343° |
| 2026-05-04 18:02 | 48.11512 | 16.57736 | 615 ft | 12 kts | 345° |
| 2026-05-04 18:02 | 48.11594 | 16.57703 | 614 ft | 12 kts | 345° |
| 2026-05-04 18:02 | 48.11670 | 16.57669 | 612 ft | 11 kts | 344° |
| 2026-05-04 18:03 | 48.11741 | 16.57639 | 616 ft | 11 kts | 344° |
| 2026-05-04 18:03 | 48.11810 | 16.57607 | 613 ft | 10 kts | 333° |
| 2026-05-04 18:03 | 48.11828 | 16.57513 | 610 ft | 10 kts | 259° |
| 2026-05-04 18:03 | 48.11811 | 16.57416 | 610 ft | 10 kts | 255° |
| 2026-05-04 18:04 | 48.11820 | 16.57323 | 617 ft | 9 kts | 295° |
| 2026-05-04 18:04 | 48.11847 | 16.57239 | 621 ft | 9 kts | 296° |
| 2026-05-04 18:04 | 48.11878 | 16.57070 | 617 ft | 8 kts | 295° |
| 2026-05-04 18:05 | 48.11860 | 16.57009 | 610 ft | 8 kts | 202° |
| 2026-05-04 18:05 | 48.11827 | 16.56985 | 618 ft | 0 kts | 206° |